sensor_id;sensor_type;location;lat;lon;timestamp;P1;durP1;ratioP1;P2;durP2;ratioP2
32196;SDS011;18697;42.770;23.400;2023-05-07T00:00:42;11.20;;;7.13;;
32196;SDS011;18697;42.770;23.400;2023-05-07T00:03:08;12.48;;;7.22;;
32196;SDS011;18697;42.770;23.400;2023-05-07T00:07:58;12.45;;;6.07;;
32196;SDS011;18697;42.770;23.400;2023-05-07T00:12:50;16.17;;;6.88;;
32196;SDS011;18697;42.770;23.400;2023-05-07T00:15:15;17.52;;;7.68;;
32196;SDS011;18697;42.770;23.400;2023-05-07T00:17:41;10.85;;;6.70;;
32196;SDS011;18697;42.770;23.400;2023-05-07T00:20:06;8.43;;;6.50;;
32196;SDS011;18697;42.770;23.400;2023-05-07T00:22:32;8.70;;;6.13;;
32196;SDS011;18697;42.770;23.400;2023-05-07T00:24:58;9.23;;;7.25;;
32196;SDS011;18697;42.770;23.400;2023-05-07T00:27:24;10.55;;;8.25;;
32196;SDS011;18697;42.770;23.400;2023-05-07T00:29:49;12.23;;;9.38;;
32196;SDS011;18697;42.770;23.400;2023-05-07T00:34:40;11.80;;;8.43;;
32196;SDS011;18697;42.770;23.400;2023-05-07T00:37:06;9.93;;;7.97;;
32196;SDS011;18697;42.770;23.400;2023-05-07T00:39:32;13.00;;;9.60;;
32196;SDS011;18697;42.770;23.400;2023-05-07T00:41:58;13.40;;;8.68;;
32196;SDS011;18697;42.770;23.400;2023-05-07T00:44:25;9.90;;;8.10;;
32196;SDS011;18697;42.770;23.400;2023-05-07T00:46:51;11.05;;;8.43;;
32196;SDS011;18697;42.770;23.400;2023-05-07T00:49:17;14.45;;;9.40;;
32196;SDS011;18697;42.770;23.400;2023-05-07T00:51:43;13.40;;;10.15;;
32196;SDS011;18697;42.770;23.400;2023-05-07T00:54:09;11.88;;;9.35;;
32196;SDS011;18697;42.770;23.400;2023-05-07T00:56:36;15.43;;;9.15;;
32196;SDS011;18697;42.770;23.400;2023-05-07T00:59:02;15.20;;;9.70;;
32196;SDS011;18697;42.770;23.400;2023-05-07T01:01:28;14.63;;;8.73;;
32196;SDS011;18697;42.770;23.400;2023-05-07T01:03:54;12.98;;;9.70;;
32196;SDS011;18697;42.770;23.400;2023-05-07T01:06:20;14.88;;;9.95;;
32196;SDS011;18697;42.770;23.400;2023-05-07T01:08:48;13.95;;;9.82;;
32196;SDS011;18697;42.770;23.400;2023-05-07T01:11:15;14.50;;;8.80;;
32196;SDS011;18697;42.770;23.400;2023-05-07T01:13:42;13.93;;;8.90;;
32196;SDS011;18697;42.770;23.400;2023-05-07T01:16:08;14.07;;;8.93;;
32196;SDS011;18697;42.770;23.400;2023-05-07T01:18:35;10.93;;;8.05;;
32196;SDS011;18697;42.770;23.400;2023-05-07T01:21:00;12.63;;;8.60;;
32196;SDS011;18697;42.770;23.400;2023-05-07T01:23:28;14.90;;;8.60;;
32196;SDS011;18697;42.770;23.400;2023-05-07T01:25:55;12.55;;;8.52;;
32196;SDS011;18697;42.770;23.400;2023-05-07T01:28:21;11.88;;;8.38;;
32196;SDS011;18697;42.770;23.400;2023-05-07T01:31:00;13.63;;;8.52;;
32196;SDS011;18697;42.770;23.400;2023-05-07T01:33:28;13.82;;;8.02;;
32196;SDS011;18697;42.770;23.400;2023-05-07T01:35:56;10.10;;;7.93;;
32196;SDS011;18697;42.770;23.400;2023-05-07T01:38:25;10.38;;;7.68;;
32196;SDS011;18697;42.770;23.400;2023-05-07T01:40:51;10.50;;;7.53;;
32196;SDS011;18697;42.770;23.400;2023-05-07T01:43:18;8.23;;;6.10;;
32196;SDS011;18697;42.770;23.400;2023-05-07T01:45:44;8.38;;;6.47;;
32196;SDS011;18697;42.770;23.400;2023-05-07T01:48:10;10.00;;;7.13;;
32196;SDS011;18697;42.770;23.400;2023-05-07T01:50:37;10.52;;;7.55;;
32196;SDS011;18697;42.770;23.400;2023-05-07T01:53:03;9.10;;;7.28;;
32196;SDS011;18697;42.770;23.400;2023-05-07T01:55:29;10.15;;;7.63;;
32196;SDS011;18697;42.770;23.400;2023-05-07T01:57:54;13.18;;;7.47;;
32196;SDS011;18697;42.770;23.400;2023-05-07T02:00:19;12.20;;;8.10;;
32196;SDS011;18697;42.770;23.400;2023-05-07T02:02:45;11.25;;;8.23;;
32196;SDS011;18697;42.770;23.400;2023-05-07T02:05:10;14.55;;;8.25;;
32196;SDS011;18697;42.770;23.400;2023-05-07T02:07:36;13.00;;;8.48;;
32196;SDS011;18697;42.770;23.400;2023-05-07T02:12:28;12.32;;;7.85;;
32196;SDS011;18697;42.770;23.400;2023-05-07T02:14:53;13.38;;;8.15;;
32196;SDS011;18697;42.770;23.400;2023-05-07T02:17:19;13.02;;;8.23;;
32196;SDS011;18697;42.770;23.400;2023-05-07T02:19:44;10.52;;;8.25;;
32196;SDS011;18697;42.770;23.400;2023-05-07T02:22:10;11.05;;;8.25;;
32196;SDS011;18697;42.770;23.400;2023-05-07T02:24:35;19.67;;;8.60;;
32196;SDS011;18697;42.770;23.400;2023-05-07T02:27:00;10.55;;;7.57;;
32196;SDS011;18697;42.770;23.400;2023-05-07T02:29:27;10.68;;;7.30;;
32196;SDS011;18697;42.770;23.400;2023-05-07T02:31:52;8.88;;;7.25;;
32196;SDS011;18697;42.770;23.400;2023-05-07T02:36:43;14.20;;;7.45;;
32196;SDS011;18697;42.770;23.400;2023-05-07T02:39:08;10.27;;;7.75;;
32196;SDS011;18697;42.770;23.400;2023-05-07T02:43:59;11.30;;;7.40;;
32196;SDS011;18697;42.770;23.400;2023-05-07T02:46:24;10.57;;;7.85;;
32196;SDS011;18697;42.770;23.400;2023-05-07T02:48:50;10.48;;;7.05;;
32196;SDS011;18697;42.770;23.400;2023-05-07T02:51:17;9.00;;;7.65;;
32196;SDS011;18697;42.770;23.400;2023-05-07T02:53:44;13.00;;;7.93;;
32196;SDS011;18697;42.770;23.400;2023-05-07T02:56:10;10.90;;;8.20;;
32196;SDS011;18697;42.770;23.400;2023-05-07T02:58:35;11.60;;;8.07;;
32196;SDS011;18697;42.770;23.400;2023-05-07T03:03:26;13.07;;;8.60;;
32196;SDS011;18697;42.770;23.400;2023-05-07T03:05:51;10.93;;;8.63;;
32196;SDS011;18697;42.770;23.400;2023-05-07T03:08:17;10.02;;;7.75;;
32196;SDS011;18697;42.770;23.400;2023-05-07T03:10:42;9.63;;;7.93;;
32196;SDS011;18697;42.770;23.400;2023-05-07T03:13:08;9.55;;;8.50;;
32196;SDS011;18697;42.770;23.400;2023-05-07T03:15:33;12.65;;;8.07;;
32196;SDS011;18697;42.770;23.400;2023-05-07T03:17:58;11.27;;;7.57;;
32196;SDS011;18697;42.770;23.400;2023-05-07T03:20:24;13.70;;;8.40;;
32196;SDS011;18697;42.770;23.400;2023-05-07T03:22:49;17.35;;;11.15;;
32196;SDS011;18697;42.770;23.400;2023-05-07T03:27:40;17.90;;;9.07;;
32196;SDS011;18697;42.770;23.400;2023-05-07T03:30:07;16.10;;;9.55;;
32196;SDS011;18697;42.770;23.400;2023-05-07T03:32:33;12.10;;;8.85;;
32196;SDS011;18697;42.770;23.400;2023-05-07T03:35:00;12.48;;;9.75;;
32196;SDS011;18697;42.770;23.400;2023-05-07T03:37:25;11.85;;;9.07;;
32196;SDS011;18697;42.770;23.400;2023-05-07T03:39:51;11.02;;;7.63;;
32196;SDS011;18697;42.770;23.400;2023-05-07T03:44:41;9.73;;;7.97;;
32196;SDS011;18697;42.770;23.400;2023-05-07T03:47:07;11.82;;;9.15;;
32196;SDS011;18697;42.770;23.400;2023-05-07T03:49:32;11.15;;;8.25;;
32196;SDS011;18697;42.770;23.400;2023-05-07T03:51:58;10.27;;;8.55;;
32196;SDS011;18697;42.770;23.400;2023-05-07T03:54:23;11.88;;;8.52;;
32196;SDS011;18697;42.770;23.400;2023-05-07T03:59:14;10.75;;;8.65;;
32196;SDS011;18697;42.770;23.400;2023-05-07T04:01:40;10.18;;;8.20;;
32196;SDS011;18697;42.770;23.400;2023-05-07T04:04:05;14.25;;;8.93;;
32196;SDS011;18697;42.770;23.400;2023-05-07T04:06:31;17.52;;;9.90;;
32196;SDS011;18697;42.770;23.400;2023-05-07T04:08:56;10.93;;;8.45;;
32196;SDS011;18697;42.770;23.400;2023-05-07T04:11:22;11.80;;;8.68;;
32196;SDS011;18697;42.770;23.400;2023-05-07T04:13:47;11.95;;;8.68;;
32196;SDS011;18697;42.770;23.400;2023-05-07T04:16:13;13.82;;;8.68;;
32196;SDS011;18697;42.770;23.400;2023-05-07T04:18:38;12.07;;;8.45;;
32196;SDS011;18697;42.770;23.400;2023-05-07T04:21:04;9.73;;;8.10;;
32196;SDS011;18697;42.770;23.400;2023-05-07T04:23:29;12.00;;;8.98;;
32196;SDS011;18697;42.770;23.400;2023-05-07T04:25:55;11.63;;;9.68;;
32196;SDS011;18697;42.770;23.400;2023-05-07T04:30:46;13.57;;;8.20;;
32196;SDS011;18697;42.770;23.400;2023-05-07T04:33:11;13.00;;;9.00;;
32196;SDS011;18697;42.770;23.400;2023-05-07T04:35:38;12.55;;;8.55;;
32196;SDS011;18697;42.770;23.400;2023-05-07T04:38:04;12.43;;;8.75;;
32196;SDS011;18697;42.770;23.400;2023-05-07T04:40:29;13.07;;;8.13;;
32196;SDS011;18697;42.770;23.400;2023-05-07T04:42:55;14.75;;;8.05;;
32196;SDS011;18697;42.770;23.400;2023-05-07T04:47:45;13.68;;;9.52;;
32196;SDS011;18697;42.770;23.400;2023-05-07T04:50:11;10.90;;;8.45;;
32196;SDS011;18697;42.770;23.400;2023-05-07T04:55:02;10.45;;;9.02;;
32196;SDS011;18697;42.770;23.400;2023-05-07T04:57:27;14.07;;;10.02;;
32196;SDS011;18697;42.770;23.400;2023-05-07T04:59:53;14.35;;;9.93;;
32196;SDS011;18697;42.770;23.400;2023-05-07T05:02:19;12.45;;;10.15;;
32196;SDS011;18697;42.770;23.400;2023-05-07T05:04:44;12.45;;;9.02;;
32196;SDS011;18697;42.770;23.400;2023-05-07T05:07:10;11.55;;;9.07;;
32196;SDS011;18697;42.770;23.400;2023-05-07T05:09:35;13.57;;;9.95;;
32196;SDS011;18697;42.770;23.400;2023-05-07T05:12:00;12.05;;;9.57;;
32196;SDS011;18697;42.770;23.400;2023-05-07T05:16:51;12.82;;;9.27;;
32196;SDS011;18697;42.770;23.400;2023-05-07T05:19:16;11.93;;;9.38;;
32196;SDS011;18697;42.770;23.400;2023-05-07T05:21:42;15.32;;;9.32;;
32196;SDS011;18697;42.770;23.400;2023-05-07T05:24:07;14.38;;;8.95;;
32196;SDS011;18697;42.770;23.400;2023-05-07T05:28:58;13.60;;;9.27;;
32196;SDS011;18697;42.770;23.400;2023-05-07T05:31:24;13.07;;;10.35;;
32196;SDS011;18697;42.770;23.400;2023-05-07T05:33:49;12.75;;;10.13;;
32196;SDS011;18697;42.770;23.400;2023-05-07T05:36:15;13.02;;;9.20;;
32196;SDS011;18697;42.770;23.400;2023-05-07T05:41:05;12.15;;;9.45;;
32196;SDS011;18697;42.770;23.400;2023-05-07T05:45:56;16.23;;;11.30;;
32196;SDS011;18697;42.770;23.400;2023-05-07T05:48:22;13.43;;;10.90;;
32196;SDS011;18697;42.770;23.400;2023-05-07T05:50:48;14.70;;;10.60;;
32196;SDS011;18697;42.770;23.400;2023-05-07T05:53:13;17.17;;;10.52;;
32196;SDS011;18697;42.770;23.400;2023-05-07T05:55:39;18.63;;;13.18;;
32196;SDS011;18697;42.770;23.400;2023-05-07T06:00:29;14.38;;;11.27;;
32196;SDS011;18697;42.770;23.400;2023-05-07T06:02:55;21.10;;;11.38;;
32196;SDS011;18697;42.770;23.400;2023-05-07T06:05:21;19.67;;;11.45;;
32196;SDS011;18697;42.770;23.400;2023-05-07T06:07:46;17.70;;;10.90;;
32196;SDS011;18697;42.770;23.400;2023-05-07T06:10:12;14.02;;;10.65;;
32196;SDS011;18697;42.770;23.400;2023-05-07T06:12:37;12.80;;;10.85;;
32196;SDS011;18697;42.770;23.400;2023-05-07T06:15:03;17.25;;;10.07;;
32196;SDS011;18697;42.770;23.400;2023-05-07T06:17:28;18.65;;;10.25;;
32196;SDS011;18697;42.770;23.400;2023-05-07T06:19:54;11.25;;;9.60;;
32196;SDS011;18697;42.770;23.400;2023-05-07T06:22:19;12.02;;;9.38;;
32196;SDS011;18697;42.770;23.400;2023-05-07T06:24:45;15.48;;;9.48;;
32196;SDS011;18697;42.770;23.400;2023-05-07T06:27:11;13.13;;;9.63;;
32196;SDS011;18697;42.770;23.400;2023-05-07T06:29:36;12.20;;;9.05;;
32196;SDS011;18697;42.770;23.400;2023-05-07T06:32:08;13.30;;;9.35;;
32196;SDS011;18697;42.770;23.400;2023-05-07T06:34:35;13.52;;;9.43;;
32196;SDS011;18697;42.770;23.400;2023-05-07T06:37:02;13.27;;;9.30;;
32196;SDS011;18697;42.770;23.400;2023-05-07T06:39:27;10.68;;;8.88;;
32196;SDS011;18697;42.770;23.400;2023-05-07T06:41:53;13.95;;;9.13;;
32196;SDS011;18697;42.770;23.400;2023-05-07T06:44:18;12.00;;;9.25;;
32196;SDS011;18697;42.770;23.400;2023-05-07T06:46:44;14.13;;;9.63;;
32196;SDS011;18697;42.770;23.400;2023-05-07T06:49:10;11.10;;;8.85;;
32196;SDS011;18697;42.770;23.400;2023-05-07T06:51:35;11.73;;;9.25;;
32196;SDS011;18697;42.770;23.400;2023-05-07T06:54:01;14.02;;;8.57;;
32196;SDS011;18697;42.770;23.400;2023-05-07T06:56:26;13.38;;;8.65;;
32196;SDS011;18697;42.770;23.400;2023-05-07T06:58:52;13.52;;;8.65;;
32196;SDS011;18697;42.770;23.400;2023-05-07T07:01:17;15.18;;;8.82;;
32196;SDS011;18697;42.770;23.400;2023-05-07T07:03:42;12.75;;;9.30;;
32196;SDS011;18697;42.770;23.400;2023-05-07T07:06:08;10.10;;;8.50;;
32196;SDS011;18697;42.770;23.400;2023-05-07T07:08:33;11.88;;;8.35;;
32196;SDS011;18697;42.770;23.400;2023-05-07T07:10:59;14.35;;;8.38;;
32196;SDS011;18697;42.770;23.400;2023-05-07T07:13:25;10.48;;;7.97;;
32196;SDS011;18697;42.770;23.400;2023-05-07T07:15:51;11.60;;;8.57;;
32196;SDS011;18697;42.770;23.400;2023-05-07T07:18:16;11.13;;;8.23;;
32196;SDS011;18697;42.770;23.400;2023-05-07T07:20:42;9.30;;;8.02;;
32196;SDS011;18697;42.770;23.400;2023-05-07T07:23:09;14.18;;;9.05;;
32196;SDS011;18697;42.770;23.400;2023-05-07T07:25:34;15.02;;;8.02;;
32196;SDS011;18697;42.770;23.400;2023-05-07T07:28:00;11.95;;;8.88;;
32196;SDS011;18697;42.770;23.400;2023-05-07T07:30:26;16.88;;;8.38;;
32196;SDS011;18697;42.770;23.400;2023-05-07T07:32:51;15.75;;;8.98;;
32196;SDS011;18697;42.770;23.400;2023-05-07T07:35:17;12.93;;;8.32;;
32196;SDS011;18697;42.770;23.400;2023-05-07T07:37:43;10.93;;;8.02;;
32196;SDS011;18697;42.770;23.400;2023-05-07T07:40:08;12.15;;;7.43;;
32196;SDS011;18697;42.770;23.400;2023-05-07T07:42:34;12.90;;;7.68;;
32196;SDS011;18697;42.770;23.400;2023-05-07T07:44:59;11.02;;;7.05;;
32196;SDS011;18697;42.770;23.400;2023-05-07T07:47:25;9.15;;;7.28;;
32196;SDS011;18697;42.770;23.400;2023-05-07T07:49:50;11.52;;;7.22;;
32196;SDS011;18697;42.770;23.400;2023-05-07T07:52:16;10.73;;;6.80;;
32196;SDS011;18697;42.770;23.400;2023-05-07T07:54:41;10.20;;;7.35;;
32196;SDS011;18697;42.770;23.400;2023-05-07T07:57:07;10.15;;;7.47;;
32196;SDS011;18697;42.770;23.400;2023-05-07T07:59:32;7.95;;;6.63;;
32196;SDS011;18697;42.770;23.400;2023-05-07T08:01:57;7.90;;;6.70;;
32196;SDS011;18697;42.770;23.400;2023-05-07T08:04:23;7.68;;;6.10;;
32196;SDS011;18697;42.770;23.400;2023-05-07T08:06:48;6.80;;;6.10;;
32196;SDS011;18697;42.770;23.400;2023-05-07T08:09:14;6.22;;;5.30;;
32196;SDS011;18697;42.770;23.400;2023-05-07T08:11:39;7.25;;;5.63;;
32196;SDS011;18697;42.770;23.400;2023-05-07T08:14:05;7.47;;;5.72;;
32196;SDS011;18697;42.770;23.400;2023-05-07T08:16:30;9.98;;;5.47;;
32196;SDS011;18697;42.770;23.400;2023-05-07T08:18:56;8.73;;;5.65;;
32196;SDS011;18697;42.770;23.400;2023-05-07T08:21:22;6.00;;;5.28;;
32196;SDS011;18697;42.770;23.400;2023-05-07T08:23:49;10.10;;;5.60;;
32196;SDS011;18697;42.770;23.400;2023-05-07T08:26:14;7.30;;;4.88;;
32196;SDS011;18697;42.770;23.400;2023-05-07T08:28:40;9.98;;;5.18;;
32196;SDS011;18697;42.770;23.400;2023-05-07T08:31:05;9.52;;;5.20;;
32196;SDS011;18697;42.770;23.400;2023-05-07T08:33:30;9.35;;;5.95;;
32196;SDS011;18697;42.770;23.400;2023-05-07T08:35:56;7.68;;;5.03;;
32196;SDS011;18697;42.770;23.400;2023-05-07T08:38:21;9.48;;;5.45;;
32196;SDS011;18697;42.770;23.400;2023-05-07T08:40:47;8.02;;;5.50;;
32196;SDS011;18697;42.770;23.400;2023-05-07T08:43:13;6.57;;;5.43;;
32196;SDS011;18697;42.770;23.400;2023-05-07T08:45:40;10.23;;;5.40;;
32196;SDS011;18697;42.770;23.400;2023-05-07T08:48:10;14.43;;;6.68;;
32196;SDS011;18697;42.770;23.400;2023-05-07T08:50:40;12.18;;;7.50;;
32196;SDS011;18697;42.770;23.400;2023-05-07T08:53:05;13.38;;;7.50;;
32196;SDS011;18697;42.770;23.400;2023-05-07T08:55:31;13.90;;;6.55;;
32196;SDS011;18697;42.770;23.400;2023-05-07T08:57:58;12.75;;;8.07;;
32196;SDS011;18697;42.770;23.400;2023-05-07T09:00:23;11.88;;;7.95;;
32196;SDS011;18697;42.770;23.400;2023-05-07T09:02:49;13.07;;;7.75;;
32196;SDS011;18697;42.770;23.400;2023-05-07T09:05:14;16.65;;;7.45;;
32196;SDS011;18697;42.770;23.400;2023-05-07T09:07:40;9.95;;;6.85;;
32196;SDS011;18697;42.770;23.400;2023-05-07T09:10:06;13.45;;;6.72;;
32196;SDS011;18697;42.770;23.400;2023-05-07T09:12:32;31.58;;;10.10;;
32196;SDS011;18697;42.770;23.400;2023-05-07T09:14:58;16.05;;;7.32;;
32196;SDS011;18697;42.770;23.400;2023-05-07T09:17:25;7.30;;;5.28;;
32196;SDS011;18697;42.770;23.400;2023-05-07T09:19:50;9.35;;;5.47;;
32196;SDS011;18697;42.770;23.400;2023-05-07T09:22:16;7.38;;;5.40;;
32196;SDS011;18697;42.770;23.400;2023-05-07T09:24:46;6.15;;;4.65;;
32196;SDS011;18697;42.770;23.400;2023-05-07T09:27:16;5.25;;;2.95;;
32196;SDS011;18697;42.770;23.400;2023-05-07T09:29:43;4.10;;;3.42;;
32196;SDS011;18697;42.770;23.400;2023-05-07T09:32:09;9.95;;;3.30;;
32196;SDS011;18697;42.770;23.400;2023-05-07T09:34:34;3.85;;;2.72;;
32196;SDS011;18697;42.770;23.400;2023-05-07T09:37:01;3.97;;;2.97;;
32196;SDS011;18697;42.770;23.400;2023-05-07T09:39:38;4.18;;;2.72;;
32196;SDS011;18697;42.770;23.400;2023-05-07T09:44:40;3.30;;;2.73;;
32196;SDS011;18697;42.770;23.400;2023-05-07T09:47:06;3.58;;;2.63;;
32196;SDS011;18697;42.770;23.400;2023-05-07T09:49:36;5.90;;;2.75;;
32196;SDS011;18697;42.770;23.400;2023-05-07T09:52:04;4.53;;;3.05;;
32196;SDS011;18697;42.770;23.400;2023-05-07T09:54:33;5.90;;;2.95;;
32196;SDS011;18697;42.770;23.400;2023-05-07T09:57:04;3.83;;;2.90;;
32196;SDS011;18697;42.770;23.400;2023-05-07T09:59:31;3.75;;;2.75;;
32196;SDS011;18697;42.770;23.400;2023-05-07T10:01:58;3.33;;;2.60;;
32196;SDS011;18697;42.770;23.400;2023-05-07T10:04:27;4.00;;;2.63;;
32196;SDS011;18697;42.770;23.400;2023-05-07T10:06:54;8.48;;;3.03;;
32196;SDS011;18697;42.770;23.400;2023-05-07T10:09:20;4.95;;;3.78;;
32196;SDS011;18697;42.770;23.400;2023-05-07T10:11:46;4.78;;;2.78;;
32196;SDS011;18697;42.770;23.400;2023-05-07T10:14:13;4.82;;;2.38;;
32196;SDS011;18697;42.770;23.400;2023-05-07T10:16:39;3.65;;;2.80;;
32196;SDS011;18697;42.770;23.400;2023-05-07T10:19:06;4.35;;;2.70;;
32196;SDS011;18697;42.770;23.400;2023-05-07T10:21:38;3.10;;;2.67;;
32196;SDS011;18697;42.770;23.400;2023-05-07T10:24:10;2.85;;;2.58;;
32196;SDS011;18697;42.770;23.400;2023-05-07T10:26:42;3.05;;;2.60;;
32196;SDS011;18697;42.770;23.400;2023-05-07T10:34:56;4.03;;;2.75;;
32196;SDS011;18697;42.770;23.400;2023-05-07T10:37:24;3.15;;;2.08;;
32196;SDS011;18697;42.770;23.400;2023-05-07T10:39:51;2.38;;;2.10;;
32196;SDS011;18697;42.770;23.400;2023-05-07T10:42:17;3.63;;;2.80;;
32196;SDS011;18697;42.770;23.400;2023-05-07T10:44:42;4.00;;;2.20;;
32196;SDS011;18697;42.770;23.400;2023-05-07T10:47:11;4.10;;;2.22;;
32196;SDS011;18697;42.770;23.400;2023-05-07T10:52:14;2.35;;;2.15;;
32196;SDS011;18697;42.770;23.400;2023-05-07T10:54:41;4.00;;;2.60;;
32196;SDS011;18697;42.770;23.400;2023-05-07T11:16:29;3.25;;;2.20;;
32196;SDS011;18697;42.770;23.400;2023-05-07T11:18:55;4.07;;;2.40;;
32196;SDS011;18697;42.770;23.400;2023-05-07T11:21:34;6.07;;;2.78;;
32196;SDS011;18697;42.770;23.400;2023-05-07T11:24:01;3.83;;;2.63;;
32196;SDS011;18697;42.770;23.400;2023-05-07T11:26:29;5.15;;;2.85;;
32196;SDS011;18697;42.770;23.400;2023-05-07T11:28:56;5.90;;;2.78;;
32196;SDS011;18697;42.770;23.400;2023-05-07T11:31:23;4.55;;;2.33;;
32196;SDS011;18697;42.770;23.400;2023-05-07T11:33:51;2.78;;;2.58;;
32196;SDS011;18697;42.770;23.400;2023-05-07T11:36:17;2.80;;;2.50;;
32196;SDS011;18697;42.770;23.400;2023-05-07T11:38:43;2.78;;;2.58;;
32196;SDS011;18697;42.770;23.400;2023-05-07T11:41:08;2.55;;;2.22;;
32196;SDS011;18697;42.770;23.400;2023-05-07T11:43:34;2.70;;;2.45;;
32196;SDS011;18697;42.770;23.400;2023-05-07T11:46:10;3.70;;;2.40;;
32196;SDS011;18697;42.770;23.400;2023-05-07T11:48:36;4.30;;;2.42;;
32196;SDS011;18697;42.770;23.400;2023-05-07T11:51:04;3.58;;;2.42;;
32196;SDS011;18697;42.770;23.400;2023-05-07T11:53:36;4.05;;;2.63;;
32196;SDS011;18697;42.770;23.400;2023-05-07T11:56:13;4.30;;;2.20;;
32196;SDS011;18697;42.770;23.400;2023-05-07T11:58:40;4.72;;;2.30;;
32196;SDS011;18697;42.770;23.400;2023-05-07T12:01:09;3.35;;;2.60;;
32196;SDS011;18697;42.770;23.400;2023-05-07T12:03:36;3.95;;;2.70;;
32196;SDS011;18697;42.770;23.400;2023-05-07T12:06:05;2.60;;;2.40;;
32196;SDS011;18697;42.770;23.400;2023-05-07T12:08:31;2.63;;;2.42;;
32196;SDS011;18697;42.770;23.400;2023-05-07T12:10:56;2.45;;;2.25;;
32196;SDS011;18697;42.770;23.400;2023-05-07T12:13:22;5.28;;;2.90;;
32196;SDS011;18697;42.770;23.400;2023-05-07T12:15:54;2.80;;;2.40;;
32196;SDS011;18697;42.770;23.400;2023-05-07T12:18:21;3.53;;;2.20;;
32196;SDS011;18697;42.770;23.400;2023-05-07T12:20:47;5.25;;;2.50;;
32196;SDS011;18697;42.770;23.400;2023-05-07T12:23:13;3.30;;;2.30;;
32196;SDS011;18697;42.770;23.400;2023-05-07T12:25:40;5.30;;;3.30;;
32196;SDS011;18697;42.770;23.400;2023-05-07T12:28:16;3.35;;;2.50;;
32196;SDS011;18697;42.770;23.400;2023-05-07T12:30:43;3.22;;;2.58;;
32196;SDS011;18697;42.770;23.400;2023-05-07T12:33:09;4.45;;;2.35;;
32196;SDS011;18697;42.770;23.400;2023-05-07T12:35:41;4.68;;;2.40;;
32196;SDS011;18697;42.770;23.400;2023-05-07T12:38:11;2.50;;;2.25;;
32196;SDS011;18697;42.770;23.400;2023-05-07T12:40:38;4.70;;;2.40;;
32196;SDS011;18697;42.770;23.400;2023-05-07T12:43:05;8.32;;;3.38;;
32196;SDS011;18697;42.770;23.400;2023-05-07T12:45:31;3.65;;;2.17;;
32196;SDS011;18697;42.770;23.400;2023-05-07T12:48:02;3.60;;;2.25;;
32196;SDS011;18697;42.770;23.400;2023-05-07T12:50:30;2.60;;;2.38;;
32196;SDS011;18697;42.770;23.400;2023-05-07T12:52:57;3.92;;;2.17;;
32196;SDS011;18697;42.770;23.400;2023-05-07T12:55:23;3.75;;;2.63;;
32196;SDS011;18697;42.770;23.400;2023-05-07T12:57:49;3.15;;;2.20;;
32196;SDS011;18697;42.770;23.400;2023-05-07T13:00:15;8.30;;;2.63;;
32196;SDS011;18697;42.770;23.400;2023-05-07T13:02:41;10.82;;;2.50;;
32196;SDS011;18697;42.770;23.400;2023-05-07T13:05:09;2.20;;;1.95;;
32196;SDS011;18697;42.770;23.400;2023-05-07T13:07:35;2.25;;;2.05;;
32196;SDS011;18697;42.770;23.400;2023-05-07T13:10:01;15.27;;;3.13;;
32196;SDS011;18697;42.770;23.400;2023-05-07T13:12:27;2.72;;;2.17;;
32196;SDS011;18697;42.770;23.400;2023-05-07T13:14:53;4.70;;;2.20;;
32196;SDS011;18697;42.770;23.400;2023-05-07T13:17:18;5.72;;;1.80;;
32196;SDS011;18697;42.770;23.400;2023-05-07T13:19:43;5.03;;;2.40;;
32196;SDS011;18697;42.770;23.400;2023-05-07T13:22:09;2.25;;;1.98;;
32196;SDS011;18697;42.770;23.400;2023-05-07T13:24:34;3.53;;;2.58;;
32196;SDS011;18697;42.770;23.400;2023-05-07T13:27:00;2.40;;;1.90;;
32196;SDS011;18697;42.770;23.400;2023-05-07T13:29:25;4.53;;;1.95;;
32196;SDS011;18697;42.770;23.400;2023-05-07T13:31:55;4.05;;;1.90;;
32196;SDS011;18697;42.770;23.400;2023-05-07T13:34:21;7.30;;;2.00;;
32196;SDS011;18697;42.770;23.400;2023-05-07T13:36:47;4.53;;;2.10;;
32196;SDS011;18697;42.770;23.400;2023-05-07T13:39:12;2.92;;;1.73;;
32196;SDS011;18697;42.770;23.400;2023-05-07T13:41:37;3.03;;;1.80;;
32196;SDS011;18697;42.770;23.400;2023-05-07T13:44:03;2.35;;;2.13;;
32196;SDS011;18697;42.770;23.400;2023-05-07T13:46:29;2.38;;;2.10;;
32196;SDS011;18697;42.770;23.400;2023-05-07T13:48:54;9.30;;;2.80;;
32196;SDS011;18697;42.770;23.400;2023-05-07T13:51:20;4.18;;;2.45;;
32196;SDS011;18697;42.770;23.400;2023-05-07T13:53:46;5.10;;;1.88;;
32196;SDS011;18697;42.770;23.400;2023-05-07T13:56:12;1.85;;;1.60;;
32196;SDS011;18697;42.770;23.400;2023-05-07T13:58:37;1.73;;;1.42;;
32196;SDS011;18697;42.770;23.400;2023-05-07T14:01:03;2.53;;;2.00;;
32196;SDS011;18697;42.770;23.400;2023-05-07T14:03:28;2.20;;;1.95;;
32196;SDS011;18697;42.770;23.400;2023-05-07T14:05:56;5.90;;;4.00;;
32196;SDS011;18697;42.770;23.400;2023-05-07T14:08:22;1.48;;;1.38;;
32196;SDS011;18697;42.770;23.400;2023-05-07T14:10:48;6.00;;;3.30;;
32196;SDS011;18697;42.770;23.400;2023-05-07T14:13:13;1.52;;;1.42;;
32196;SDS011;18697;42.770;23.400;2023-05-07T14:15:39;1.60;;;1.50;;
32196;SDS011;18697;42.770;23.400;2023-05-07T14:18:05;5.03;;;3.47;;
32196;SDS011;18697;42.770;23.400;2023-05-07T14:20:30;4.15;;;1.70;;
32196;SDS011;18697;42.770;23.400;2023-05-07T14:22:56;3.80;;;3.40;;
32196;SDS011;18697;42.770;23.400;2023-05-07T14:25:21;2.35;;;1.80;;
32196;SDS011;18697;42.770;23.400;2023-05-07T14:27:47;2.95;;;1.60;;
32196;SDS011;18697;42.770;23.400;2023-05-07T14:30:14;17.00;;;2.38;;
32196;SDS011;18697;42.770;23.400;2023-05-07T14:32:39;1.50;;;1.40;;
32196;SDS011;18697;42.770;23.400;2023-05-07T14:35:07;6.82;;;3.08;;
32196;SDS011;18697;42.770;23.400;2023-05-07T14:37:33;6.13;;;2.97;;
32196;SDS011;18697;42.770;23.400;2023-05-07T14:39:58;13.00;;;3.22;;
32196;SDS011;18697;42.770;23.400;2023-05-07T14:42:23;3.65;;;2.42;;
32196;SDS011;18697;42.770;23.400;2023-05-07T14:44:49;3.85;;;2.80;;
32196;SDS011;18697;42.770;23.400;2023-05-07T14:47:14;3.72;;;2.92;;
32196;SDS011;18697;42.770;23.400;2023-05-07T14:49:40;2.17;;;2.00;;
32196;SDS011;18697;42.770;23.400;2023-05-07T14:52:06;4.32;;;3.00;;
32196;SDS011;18697;42.770;23.400;2023-05-07T14:54:34;3.03;;;2.00;;
32196;SDS011;18697;42.770;23.400;2023-05-07T14:57:02;3.33;;;2.35;;
32196;SDS011;18697;42.770;23.400;2023-05-07T14:59:27;2.88;;;1.75;;
32196;SDS011;18697;42.770;23.400;2023-05-07T15:01:53;3.10;;;2.30;;
32196;SDS011;18697;42.770;23.400;2023-05-07T15:04:19;4.43;;;2.65;;
32196;SDS011;18697;42.770;23.400;2023-05-07T15:06:44;3.25;;;2.10;;
32196;SDS011;18697;42.770;23.400;2023-05-07T15:09:11;3.00;;;2.63;;
32196;SDS011;18697;42.770;23.400;2023-05-07T15:11:36;2.00;;;1.80;;
32196;SDS011;18697;42.770;23.400;2023-05-07T15:14:01;3.15;;;2.20;;
32196;SDS011;18697;42.770;23.400;2023-05-07T15:16:27;8.88;;;5.55;;
32196;SDS011;18697;42.770;23.400;2023-05-07T15:18:52;4.50;;;2.33;;
32196;SDS011;18697;42.770;23.400;2023-05-07T15:21:18;3.92;;;2.15;;
32196;SDS011;18697;42.770;23.400;2023-05-07T15:23:43;3.92;;;2.47;;
32196;SDS011;18697;42.770;23.400;2023-05-07T15:26:09;3.63;;;2.60;;
32196;SDS011;18697;42.770;23.400;2023-05-07T15:28:35;2.83;;;2.33;;
32196;SDS011;18697;42.770;23.400;2023-05-07T15:31:01;5.75;;;2.05;;
32196;SDS011;18697;42.770;23.400;2023-05-07T15:33:26;4.65;;;2.20;;